Time;durP1;ratioP1;P1;durP2;ratioP2;P2;SDS_P1;SDS_P2;PMS_P1;PMS_P2;Temp;Humidity;BMP_temperature;BMP_pressure;BME280_temperature;BME280_humidity;BME280_pressure;Samples;Min_cycle;Max_cycle;Signal;HPM_P1;HPM_P2
2022/11/28 18:21:22;;;;;;;15.70;12.80;;;;;;;6.18;89.28;95155.22;5539215;23;21016;-90
2022/11/28 18:33:55;;;;;;;11.87;7.77;;;;;;;6.09;88.66;95165.38;4907288;29;20452;-85
2022/11/28 18:36:26;;;;;;;12.90;9.73;;;;;;;6.03;88.21;95153.56;4917342;29;20456;-86
2022/11/28 18:38:54;;;;;;;22.83;11.53;;;;;;;6.06;88.68;95157.75;4899963;29;20459;-86
2022/11/28 18:41:21;;;;;;;18.13;11.23;;;;;;;5.96;88.21;95165.31;4916477;29;20510;-86
2022/11/28 18:43:48;;;;;;;22.23;15.00;;;;;;;6.07;87.78;95156.81;4906066;29;20467;-85
2022/11/28 18:46:17;;;;;;;20.23;11.50;;;;;;;6.10;87.63;95165.28;4917680;29;20460;-88
2022/11/28 18:48:46;;;;;;;16.30;10.83;;;;;;;6.13;87.63;95162.50;4915899;29;20441;-86
2022/11/28 18:51:18;;;;;;;14.37;9.17;;;;;;;6.10;88.56;95157.47;4918229;29;20491;-85
2022/11/28 18:53:47;;;;;;;12.30;7.33;;;;;;;6.15;88.13;95160.63;4917238;29;20457;-86
2022/11/28 18:56:15;;;;;;;8.60;7.50;;;;;;;6.19;88.59;95162.09;4918583;29;20469;-85
2022/11/28 18:58:44;;;;;;;9.90;7.23;;;;;;;6.21;88.29;95160.22;4921068;29;20485;-88
2022/11/28 19:01:12;;;;;;;12.93;8.13;;;;;;;6.27;88.28;95156.38;4921630;29;20507;-85
2022/11/28 19:03:39;;;;;;;13.07;10.20;;;;;;;6.28;88.02;95159.81;4921205;29;20472;-85
2022/11/28 19:06:08;;;;;;;18.80;13.10;;;;;;;6.30;87.62;95150.13;4921396;29;20449;-86
2022/11/28 19:08:35;;;;;;;14.07;11.87;;;;;;;6.33;87.97;95157.75;4921838;29;20464;-88
2022/11/28 19:11:06;;;;;;;18.20;12.63;;;;;;;6.33;87.91;95157.75;4921029;29;20857;-85
2022/11/28 19:13:33;;;;;;;15.40;9.70;;;;;;;6.31;87.95;95152.66;4920989;29;20535;-85
2022/11/28 19:16:05;;;;;;;14.90;9.43;;;;;;;6.34;86.25;95157.66;4920004;29;20449;-87
2022/11/28 19:18:35;;;;;;;10.60;8.10;;;;;;;6.37;85.38;95159.25;4920298;29;20958;-87
2022/11/28 19:21:05;;;;;;;9.20;8.00;;;;;;;6.36;84.84;95158.44;4909597;29;20500;-85
2022/11/28 19:23:32;;;;;;;15.23;10.00;;;;;;;6.38;86.41;95153.13;4919671;29;20464;-89
2022/11/28 19:26:04;;;;;;;15.33;11.03;;;;;;;6.42;86.37;95160.63;4921262;29;20461;-87
2022/11/28 19:28:32;;;;;;;16.23;10.97;;;;;;;6.46;86.28;95159.50;4919838;29;20449;-85
2022/11/28 19:31:05;;;;;;;17.90;12.67;;;;;;;6.51;87.00;95156.59;4915559;29;20489;-86
2022/11/28 19:33:44;;;;;;;23.07;13.97;;;;;;;6.47;86.46;95165.56;4920159;29;20468;-87
2022/11/28 19:36:13;;;;;;;22.20;13.07;;;;;;;6.41;86.59;95158.13;4921088;29;20461;-88
2022/11/28 19:38:41;;;;;;;20.60;13.03;;;;;;;6.43;86.60;95158.88;4920413;29;20467;-86
2022/11/28 19:41:08;;;;;;;27.58;16.50;;;;;;;6.46;86.36;95166.47;4920484;29;20854;-87
2022/11/28 19:43:37;;;;;;;20.70;12.33;;;;;;;6.43;85.18;95149.28;4920820;29;20257;-86
2022/11/28 19:46:10;;;;;;;17.83;10.87;;;;;;;6.47;84.96;95160.34;4921014;29;20963;-87
2022/11/28 19:48:38;;;;;;;19.60;10.20;;;;;;;6.47;84.44;95166.38;4907165;29;20466;-85
2022/11/28 19:51:18;;;;;;;8.07;5.90;;;;;;;6.40;84.13;95166.88;4919615;29;20572;-83
2022/11/28 19:53:45;;;;;;;9.00;5.90;;;;;;;6.26;84.03;95170.34;4907541;29;20459;-88
2022/11/28 19:56:14;;;;;;;9.23;5.70;;;;;;;6.24;84.50;95169.63;4920378;29;20472;-87
2022/11/28 19:58:43;;;;;;;8.17;4.80;;;;;;;6.24;83.78;95169.63;4919715;29;20819;-85
2022/11/28 20:01:12;;;;;;;6.70;5.70;;;;;;;6.24;84.36;95163.56;4920843;29;20809;-87
2022/11/28 20:03:40;;;;;;;3.87;3.37;;;;;;;6.07;84.08;95172.44;4919832;29;20940;-87
2022/11/28 20:06:13;;;;;;;5.47;4.20;;;;;;;6.08;84.66;95174.97;4919604;29;20491;-85
2022/11/28 20:08:41;;;;;;;7.47;5.70;;;;;;;6.04;85.01;95173.47;4918878;29;20463;-86
2022/11/28 20:11:11;;;;;;;6.10;4.80;;;;;;;6.11;84.82;95181.75;4920027;29;20483;-86
2022/11/28 20:13:39;;;;;;;9.37;7.13;;;;;;;6.13;84.31;95177.28;4920401;29;20464;-85
2022/11/28 20:16:12;;;;;;;10.33;6.20;;;;;;;6.15;84.90;95180.63;4921195;29;20548;-85
2022/11/28 20:18:41;;;;;;;8.30;5.37;;;;;;;6.12;84.32;95179.06;4922690;29;20456;-87
2022/11/28 20:21:13;;;;;;;5.80;5.30;;;;;;;6.11;84.96;95174.78;4919594;29;20491;-88
2022/11/28 20:23:42;;;;;;;7.43;6.23;;;;;;;6.15;85.35;95181.47;4921160;29;20539;-90
2022/11/28 20:26:10;;;;;;;11.97;7.60;;;;;;;6.11;85.30;95185.19;4921141;29;20551;-87
2022/11/28 20:28:42;;;;;;;9.20;6.50;;;;;;;6.16;84.90;95185.75;4919988;29;20547;-85
2022/11/28 20:31:20;;;;;;;6.17;5.33;;;;;;;6.06;85.59;95183.78;4919448;29;22264;-84
2022/11/28 20:33:48;;;;;;;16.60;10.33;;;;;;;5.96;85.35;95182.69;4919577;29;20464;-86
2022/11/28 20:36:25;;;;;;;18.00;11.80;;;;;;;5.94;85.91;95177.59;4919382;29;20464;-85
2022/11/28 20:38:53;;;;;;;12.27;9.50;;;;;;;5.97;85.49;95176.56;4918660;29;20474;-86
2022/11/28 20:41:22;;;;;;;9.90;8.20;;;;;;;6.08;85.23;95172.38;4918764;29;20469;-86
2022/11/28 20:50:35;;;;;;;51.53;30.43;;;;;;;6.14;84.63;95185.00;4907653;29;20590;-87
2022/11/28 20:53:02;;;;;;;28.33;14.20;;;;;;;6.08;85.06;95182.78;4919093;29;20460;-88
2022/11/28 20:55:29;;;;;;;19.70;11.23;;;;;;;6.10;84.99;95180.91;4919325;29;20484;-88
2022/11/28 20:57:56;;;;;;;20.23;11.70;;;;;;;6.11;84.99;95174.78;4919420;29;20468;-88
2022/11/28 21:00:23;;;;;;;16.17;11.63;;;;;;;6.07;84.84;95173.31;4918533;29;20808;-87
2022/11/28 21:02:50;;;;;;;32.17;20.67;;;;;;;6.10;84.54;95173.09;4918405;29;20457;-86
2022/11/28 21:05:20;;;;;;;20.13;13.83;;;;;;;6.10;84.00;95170.50;4901518;29;20453;-86
2022/11/28 21:07:51;;;;;;;14.30;11.30;;;;;;;6.18;84.36;95172.63;4918732;29;20450;-87
2022/11/28 21:10:18;;;;;;;6.60;5.50;;;;;;;6.07;84.17;95180.25;4918880;29;20489;-87
2022/11/28 21:12:45;;;;;;;5.17;4.60;;;;;;;5.92;84.52;95184.66;4918772;29;20463;-87
2022/11/28 21:15:21;;;;;;;11.27;8.30;;;;;;;5.95;84.55;95176.66;4919074;29;20469;-85
2022/11/28 21:17:49;;;;;;;20.03;14.00;;;;;;;5.87;84.89;95182.31;4919042;29;20893;-82
2022/11/28 21:20:16;;;;;;;26.30;18.77;;;;;;;5.89;85.06;95170.06;4917954;29;20461;-84
2022/11/28 21:22:43;;;;;;;13.17;9.47;;;;;;;5.83;85.38;95178.22;4917953;29;20932;-85
2022/11/28 21:25:12;;;;;;;11.37;7.33;;;;;;;5.65;86.52;95178.50;4917709;29;20448;-86
2022/11/28 21:27:41;;;;;;;7.53;5.03;;;;;;;5.65;86.83;95181.09;4919954;29;20460;-86
2022/11/28 21:30:09;;;;;;;4.60;4.20;;;;;;;5.59;86.50;95172.75;4918575;29;20524;-82
2022/11/28 21:32:37;;;;;;;5.33;4.67;;;;;;;5.70;86.77;95181.66;4918263;29;20474;-85
2022/11/28 21:35:06;;;;;;;7.77;5.53;;;;;;;5.72;86.16;95179.78;4900636;29;20542;-84
2022/11/28 21:37:37;;;;;;;9.60;6.93;;;;;;;5.63;86.30;95178.59;4919158;29;21039;-85
2022/11/28 21:40:06;;;;;;;11.23;6.67;;;;;;;5.62;87.41;95181.28;4918507;29;20463;-85
2022/11/28 21:42:37;;;;;;;17.93;15.20;;;;;;;5.45;87.62;95171.91;4918401;29;20982;-84
2022/11/28 21:45:06;;;;;;;11.20;9.37;;;;;;;5.59;87.60;95172.75;4918235;29;20539;-84
2022/11/28 21:47:39;;;;;;;8.67;7.27;;;;;;;5.13;88.91;95163.41;4918554;29;20448;-83
2022/11/28 21:50:07;;;;;;;8.57;7.27;;;;;;;5.02;89.80;95165.81;4918370;29;20443;-84
2022/11/28 21:52:34;;;;;;;18.17;9.47;;;;;;;4.59;92.71;95166.53;4918047;29;20456;-83
2022/11/28 21:55:01;;;;;;;7.57;5.33;;;;;;;4.62;94.26;95168.94;4900506;29;20833;-85
2022/11/28 21:57:30;;;;;;;11.27;7.27;;;;;;;4.50;93.94;95158.41;4917726;29;20946;-84
2022/11/28 22:00:00;;;;;;;6.10;4.70;;;;;;;4.61;93.66;95159.47;4917889;29;20440;-84
2022/11/28 22:05:51;;;;;;;5.43;4.40;;;;;;;4.51;95.33;95160.09;4916895;29;20545;-84
2022/11/28 22:08:18;;;;;;;5.90;5.20;;;;;;;4.59;95.60;95165.69;4918407;29;20447;-84
2022/11/28 22:10:45;;;;;;;11.47;7.37;;;;;;;4.62;94.89;95155.94;4917424;29;20476;-84
2022/11/28 22:13:11;;;;;;;24.40;17.00;;;;;;;4.45;95.77;95158.69;4917807;29;20449;-85
2022/11/28 22:15:41;;;;;;;13.17;9.07;;;;;;;4.46;96.38;95151.72;4918074;29;20456;-84
2022/11/28 22:18:08;;;;;;;22.70;10.50;;;;;;;4.49;97.05;95159.34;4917396;29;20535;-85
2022/11/28 22:20:35;;;;;;;13.37;8.57;;;;;;;4.50;97.04;95151.47;4918117;29;20884;-84
2022/11/28 22:23:02;;;;;;;18.70;11.50;;;;;;;4.34;97.19;95153.28;4917858;29;20444;-84
2022/11/28 22:25:29;;;;;;;24.80;13.80;;;;;;;4.39;96.83;95153.84;4917416;29;20453;-83
2022/11/28 22:27:56;;;;;;;23.30;14.60;;;;;;;4.11;97.72;95145.91;4917667;29;20440;-84
2022/11/28 22:30:24;;;;;;;18.80;11.00;;;;;;;4.09;97.10;95142.56;4883811;29;20839;-83
2022/11/28 22:32:53;;;;;;;25.37;14.00;;;;;;;3.97;97.69;95155.28;4917690;29;20459;-83
2022/11/28 22:35:20;;;;;;;17.17;9.83;;;;;;;4.19;96.04;95144.56;4917384;29;20457;-83
2022/11/28 22:37:47;;;;;;;21.80;11.83;;;;;;;4.05;96.60;95139.31;4917159;29;20446;-84
2022/11/28 22:40:15;;;;;;;11.67;9.17;;;;;;;4.14;96.46;95138.78;4917544;29;20833;-84
2022/11/28 22:42:42;;;;;;;11.73;9.80;;;;;;;4.16;96.02;95149.94;4917311;29;20456;-84
2022/11/28 22:45:11;;;;;;;15.50;13.43;;;;;;;4.32;95.23;95135.13;4917689;29;20463;-84
2022/11/28 22:47:38;;;;;;;15.10;9.90;;;;;;;4.15;95.19;95127.47;4917151;29;20551;-84
2022/11/28 22:50:08;;;;;;;10.03;7.13;;;;;;;4.07;96.05;95121.88;4916916;29;20468;-85
2022/11/28 22:52:35;;;;;;;9.67;7.17;;;;;;;4.04;95.93;95128.06;4916819;29;20479;-84
2022/11/28 22:55:02;;;;;;;6.10;5.13;;;;;;;4.02;96.06;95132.50;4916670;29;20470;-84
2022/11/28 22:57:29;;;;;;;9.60;8.43;;;;;;;4.17;95.93;95114.41;4917481;29;20444;-84
2022/11/28 22:59:56;;;;;;;7.87;5.70;;;;;;;4.09;95.82;95120.03;4916893;29;20945;-84
2022/11/28 23:02:24;;;;;;;17.57;11.70;;;;;;;4.25;95.60;95122.59;4899736;29;20447;-84
2022/11/28 23:04:51;;;;;;;16.43;10.80;;;;;;;4.25;95.65;95122.59;4916622;29;20488;-84
2022/11/28 23:07:19;;;;;;;17.00;10.50;;;;;;;4.32;95.20;95121.31;4915155;29;20448;-84
2022/11/28 23:09:55;;;;;;;20.63;14.37;;;;;;;4.45;95.15;95118.88;4917560;29;20436;-83
2022/11/28 23:12:22;;;;;;;8.60;7.10;;;;;;;4.29;94.25;95113.69;4916922;29;20480;-84
2022/11/28 23:14:50;;;;;;;7.20;5.70;;;;;;;4.39;95.55;95114.88;4916638;29;20444;-84
2022/11/28 23:17:31;;;;;;;9.80;7.00;;;;;;;4.40;93.89;95111.34;4917085;29;20543;-84
2022/11/28 23:19:58;;;;;;;7.10;6.10;;;;;;;4.54;93.67;95108.78;4916767;29;20464;-84
2022/11/28 23:22:27;;;;;;;10.97;7.23;;;;;;;4.42;93.79;95100.88;4917093;29;20562;-83
2022/11/28 23:24:54;;;;;;;7.77;5.40;;;;;;;4.14;95.34;95102.44;4916638;29;20511;-83
2022/11/28 23:27:21;;;;;;;8.63;7.27;;;;;;;4.12;95.13;95106.03;4916847;29;20464;-83
2022/11/28 23:29:48;;;;;;;16.37;7.93;;;;;;;4.15;96.63;95100.66;4916429;29;20928;-83
2022/11/28 23:32:17;;;;;;;9.23;6.93;;;;;;;4.18;95.09;95106.53;4916396;29;20487;-84
2022/11/28 23:34:44;;;;;;;5.37;4.83;;;;;;;4.22;95.42;95095.03;4917121;29;20959;-84
2022/11/28 23:37:11;;;;;;;4.77;4.20;;;;;;;4.11;95.71;95089.63;4917371;29;20448;-84
2022/11/28 23:39:41;;;;;;;4.70;4.20;;;;;;;4.13;95.28;95098.16;4917186;29;20785;-84
2022/11/28 23:42:08;;;;;;;4.63;3.50;;;;;;;4.32;95.24;95092.75;4917541;29;20447;-84
2022/11/28 23:44:34;;;;;;;5.60;4.30;;;;;;;4.45;95.58;95092.91;4920644;29;20456;-83
2022/11/28 23:47:04;;;;;;;4.60;4.20;;;;;;;4.53;94.29;95088.09;4920215;29;20459;-84
2022/11/28 23:56:19;;;;;;;5.00;4.50;;;;;;;5.02;92.00;95080.00;4920037;29;20473;-83
2022/11/28 23:58:46;;;;;;;4.43;3.70;;;;;;;5.15;91.19;95083.53;4921026;29;20492;-82
